createdAt,value
2023-06-07T00:01:07.963Z,18.38
2023-06-07T00:03:35.869Z,18.37
2023-06-07T00:06:02.635Z,18.36
2023-06-07T00:08:32.428Z,18.32
2023-06-07T00:10:59.586Z,18.32
2023-06-07T00:13:26.171Z,18.28
2023-06-07T00:15:52.735Z,18.29
2023-06-07T00:18:20.705Z,18.28
2023-06-07T00:20:47.455Z,18.27
2023-06-07T00:23:17.104Z,18.27
2023-06-07T00:25:43.952Z,18.25
2023-06-07T00:28:10.703Z,18.23
2023-06-07T00:30:37.240Z,18.23
2023-06-07T00:33:04.138Z,18.24
2023-06-07T00:35:30.765Z,18.23
2023-06-07T00:37:57.356Z,18.24
2023-06-07T00:40:23.984Z,18.23
2023-06-07T00:42:50.660Z,18.21
2023-06-07T00:45:17.376Z,18.18
2023-06-07T00:47:44.276Z,18.19
2023-06-07T00:50:11.737Z,18.18
2023-06-07T00:52:38.951Z,18.19
2023-06-07T00:55:06.547Z,18.18
2023-06-07T00:57:34.128Z,18.16
2023-06-07T01:00:02.854Z,18.14
2023-06-07T01:02:30.578Z,18.15
2023-06-07T01:04:58.974Z,18.15
2023-06-07T01:07:26.239Z,18.17
2023-06-07T01:09:54.338Z,18.19
2023-06-07T01:12:22.291Z,18.21
2023-06-07T01:14:50.050Z,18.22
2023-06-07T01:17:19.207Z,18.19
2023-06-07T01:19:52.942Z,18.19
2023-06-07T01:22:22.047Z,18.19
2023-06-07T01:24:49.526Z,18.18
2023-06-07T01:27:16.369Z,18.16
2023-06-07T01:29:44.592Z,18.16
2023-06-07T01:32:13.459Z,18.14
2023-06-07T01:34:41.118Z,18.14
2023-06-07T01:37:08.695Z,18.13
2023-06-07T01:39:37.416Z,18.09
2023-06-07T01:42:04.926Z,18.08
2023-06-07T01:44:32.168Z,18.07
2023-06-07T01:46:58.798Z,18.06
2023-06-07T01:49:25.385Z,18.05
2023-06-07T01:51:51.948Z,18.06
2023-06-07T01:54:19.651Z,18.04
2023-06-07T01:57:06.037Z,18.05
2023-06-07T01:59:58.537Z,18.04
2023-06-07T02:02:38.605Z,18.02
2023-06-07T02:05:10.590Z,18.00
2023-06-07T02:07:44.780Z,18.00
2023-06-07T02:10:12.077Z,18.00
2023-06-07T02:12:40.165Z,17.99
2023-06-07T02:15:08.637Z,17.99
2023-06-07T02:17:36.174Z,17.98
2023-06-07T02:20:04.456Z,17.97
2023-06-07T02:22:31.403Z,17.98
2023-06-07T02:24:57.930Z,17.96
2023-06-07T02:27:24.474Z,17.94
2023-06-07T02:29:50.995Z,17.94
2023-06-07T02:32:17.822Z,17.94
2023-06-07T02:34:44.477Z,17.91
2023-06-07T02:37:11.408Z,17.92
2023-06-07T02:39:38.205Z,17.89
2023-06-07T02:42:04.887Z,17.90
2023-06-07T02:44:31.462Z,17.90
2023-06-07T02:46:58.015Z,17.90
2023-06-07T02:49:24.540Z,17.90
2023-06-07T02:51:51.052Z,17.92
2023-06-07T02:54:20.460Z,17.93
2023-06-07T02:56:47.223Z,17.94
2023-06-07T02:59:13.833Z,17.95
2023-06-07T03:01:40.444Z,17.94
2023-06-07T03:04:07.258Z,17.92
2023-06-07T03:06:34.333Z,17.92
2023-06-07T03:09:00.915Z,17.92
2023-06-07T03:11:27.442Z,17.90
2023-06-07T03:13:53.984Z,17.88
2023-06-07T03:16:20.760Z,17.87
2023-06-07T03:18:47.327Z,17.88
2023-06-07T03:21:13.855Z,17.87
2023-06-07T03:23:41.206Z,17.85
2023-06-07T03:26:08.668Z,17.84
2023-06-07T03:28:35.809Z,17.84
2023-06-07T03:31:02.645Z,17.82
2023-06-07T03:33:29.187Z,17.82
2023-06-07T03:35:57.351Z,17.81
2023-06-07T03:38:23.901Z,17.81
2023-06-07T03:40:50.654Z,17.82
2023-06-07T03:43:17.211Z,17.80
2023-06-07T03:45:43.713Z,17.81
2023-06-07T03:48:10.312Z,17.79
2023-06-07T03:50:36.915Z,17.78
2023-06-07T03:53:03.441Z,17.75
2023-06-07T03:55:30.714Z,17.74
2023-06-07T03:57:57.684Z,17.75
2023-06-07T04:00:28.054Z,17.75
2023-06-07T04:02:55.534Z,17.73
2023-06-07T04:05:25.667Z,17.72
2023-06-07T04:07:52.260Z,17.72
2023-06-07T04:10:18.775Z,17.71
2023-06-07T04:12:46.216Z,17.74
2023-06-07T04:15:12.750Z,17.73
2023-06-07T04:17:39.276Z,17.73
2023-06-07T04:20:07.474Z,17.73
2023-06-07T04:22:36.609Z,17.72
2023-06-07T04:25:04.678Z,17.72
2023-06-07T04:27:31.925Z,17.72
2023-06-07T04:29:58.519Z,17.76
2023-06-07T04:32:26.343Z,17.78
2023-06-07T04:34:53.005Z,17.78
2023-06-07T04:37:20.417Z,17.80
2023-06-07T04:39:50.307Z,17.77
2023-06-07T04:42:20.729Z,17.77
2023-06-07T04:44:48.661Z,17.76
2023-06-07T04:47:15.194Z,17.76
2023-06-07T04:49:41.934Z,17.74
2023-06-07T04:52:08.989Z,17.73
2023-06-07T04:54:37.782Z,17.70
2023-06-07T04:57:05.536Z,17.68
2023-06-07T04:59:35.904Z,17.68
2023-06-07T05:02:03.211Z,17.68
2023-06-07T05:04:31.320Z,17.68
2023-06-07T05:06:59.700Z,17.67
2023-06-07T05:09:28.745Z,17.67
2023-06-07T05:11:57.107Z,17.67
2023-06-07T05:14:23.676Z,17.67
2023-06-07T05:16:50.186Z,17.67
2023-06-07T05:19:17.990Z,17.65
2023-06-07T05:21:44.563Z,17.66
2023-06-07T05:24:11.298Z,17.67
2023-06-07T05:26:38.070Z,17.73
2023-06-07T05:29:04.614Z,17.74
2023-06-07T05:31:31.824Z,17.76
2023-06-07T05:33:58.429Z,17.80
2023-06-07T05:36:24.999Z,17.81
2023-06-07T05:38:51.523Z,17.83
2023-06-07T05:41:18.266Z,17.84
2023-06-07T05:43:44.862Z,17.86
2023-06-07T05:46:11.536Z,17.88
2023-06-07T05:48:38.048Z,17.90
2023-06-07T05:51:06.679Z,17.89
2023-06-07T05:53:34.866Z,17.89
2023-06-07T05:56:01.432Z,17.94
2023-06-07T05:58:28.340Z,17.98
2023-06-07T06:00:55.297Z,18.06
2023-06-07T06:03:22.447Z,18.12
2023-06-07T06:05:49.227Z,18.15
2023-06-07T06:08:16.964Z,18.18
2023-06-07T06:10:45.832Z,18.22
2023-06-07T06:13:12.449Z,18.26
2023-06-07T06:15:39.024Z,18.28
2023-06-07T06:18:05.770Z,18.30
2023-06-07T06:20:35.094Z,18.33
2023-06-07T06:23:04.984Z,18.37
2023-06-07T06:25:32.139Z,18.40
2023-06-07T06:28:01.801Z,18.45
2023-06-07T06:30:28.701Z,18.47
2023-06-07T06:32:55.978Z,18.49
2023-06-07T06:35:22.716Z,18.52
2023-06-07T06:37:49.425Z,18.59
2023-06-07T06:40:16.634Z,18.66
2023-06-07T06:42:43.195Z,18.73
2023-06-07T06:45:09.941Z,18.76
2023-06-07T06:47:38.231Z,18.78
2023-06-07T06:50:11.952Z,18.76
2023-06-07T06:52:45.593Z,18.73
2023-06-07T06:55:12.143Z,18.71
2023-06-07T06:57:38.673Z,18.72
2023-06-07T07:00:09.231Z,18.73
2023-06-07T07:02:35.844Z,18.72
2023-06-07T07:05:04.708Z,18.70
2023-06-07T07:07:31.218Z,18.70
2023-06-07T07:09:57.821Z,18.73
2023-06-07T07:12:24.520Z,18.74
2023-06-07T07:14:51.183Z,18.75
2023-06-07T07:17:18.091Z,18.78
2023-06-07T07:19:44.712Z,18.80
2023-06-07T07:22:13.355Z,18.81
2023-06-07T07:24:39.958Z,18.82
2023-06-07T07:27:07.809Z,18.81
2023-06-07T07:29:34.466Z,18.81
2023-06-07T07:32:01.111Z,18.82
2023-06-07T07:34:27.715Z,18.81
2023-06-07T07:36:54.761Z,18.81
2023-06-07T07:39:23.175Z,18.83
2023-06-07T07:41:49.807Z,18.82
2023-06-07T07:44:16.419Z,18.82
2023-06-07T07:46:42.978Z,18.83
2023-06-07T07:49:10.555Z,18.85
2023-06-07T07:51:37.685Z,18.88
2023-06-07T07:54:05.230Z,18.89
2023-06-07T07:56:31.767Z,18.92
2023-06-07T07:58:58.300Z,18.94
2023-06-07T08:01:25.094Z,18.95
2023-06-07T08:03:52.178Z,18.97
2023-06-07T08:06:18.948Z,18.97
2023-06-07T08:08:48.555Z,18.99
2023-06-07T08:11:15.158Z,18.98
2023-06-07T08:13:41.692Z,18.98
2023-06-07T08:16:08.253Z,18.96
2023-06-07T08:18:34.878Z,18.97
2023-06-07T08:21:01.651Z,18.97
2023-06-07T08:23:28.232Z,18.96
2023-06-07T08:25:55.057Z,18.95
2023-06-07T08:28:21.588Z,18.95
2023-06-07T08:30:48.740Z,18.94
2023-06-07T08:33:15.305Z,18.95
2023-06-07T08:35:41.922Z,18.94
2023-06-07T08:38:09.211Z,18.94
2023-06-07T08:40:39.452Z,18.95
2023-06-07T08:43:06.931Z,18.95
2023-06-07T08:45:33.521Z,18.95
2023-06-07T08:48:07.370Z,18.93
2023-06-07T08:50:34.306Z,18.94
2023-06-07T08:53:07.403Z,18.95
2023-06-07T08:55:34.836Z,18.95
2023-06-07T08:58:02.633Z,18.93
2023-06-07T09:00:30.014Z,18.94
2023-06-07T09:02:56.666Z,18.93
2023-06-07T09:05:23.959Z,18.95
2023-06-07T09:07:51.316Z,18.94
2023-06-07T09:10:21.424Z,18.94
2023-06-07T09:12:49.640Z,18.95
2023-06-07T09:15:21.182Z,18.94
2023-06-07T09:18:01.220Z,18.95
2023-06-07T09:20:29.915Z,18.95
2023-06-07T09:23:01.860Z,18.98
2023-06-07T09:25:29.148Z,18.98
2023-06-07T09:27:56.281Z,18.98
2023-06-07T09:30:23.525Z,19.00
2023-06-07T09:32:50.888Z,19.01
2023-06-07T09:35:21.840Z,19.02
2023-06-07T09:37:52.885Z,19.04
2023-06-07T09:40:20.104Z,19.04
2023-06-07T09:42:57.814Z,19.07
2023-06-07T09:45:24.409Z,19.08
2023-06-07T09:48:01.475Z,19.08
2023-06-07T09:50:29.521Z,19.08
2023-06-07T09:52:57.877Z,19.09
2023-06-07T09:55:29.445Z,19.10
2023-06-07T09:57:59.585Z,19.09
2023-06-07T10:00:27.143Z,19.08
2023-06-07T10:03:07.326Z,19.08
2023-06-07T10:05:34.475Z,19.08
2023-06-07T10:08:01.438Z,19.08
2023-06-07T10:10:28.909Z,19.09
2023-06-07T10:12:58.321Z,19.09
2023-06-07T10:15:26.149Z,19.10
2023-06-07T10:18:15.844Z,19.09
2023-06-07T10:20:53.316Z,19.07
2023-06-07T10:23:47.522Z,19.08
2023-06-07T10:26:23.104Z,19.07
2023-06-07T10:29:12.569Z,19.07
2023-06-07T10:31:48.401Z,19.08
2023-06-07T10:34:16.118Z,19.09
2023-06-07T10:36:43.257Z,19.08
2023-06-07T10:39:12.786Z,19.07
2023-06-07T10:41:40.660Z,19.06
2023-06-07T10:44:07.828Z,19.08
2023-06-07T10:46:34.544Z,19.07
2023-06-07T10:49:01.366Z,19.08
2023-06-07T10:51:44.690Z,19.11
2023-06-07T10:54:11.736Z,19.11
2023-06-07T10:56:39.403Z,19.10
2023-06-07T10:59:15.186Z,19.12
2023-06-07T11:01:49.965Z,19.11
2023-06-07T11:04:41.232Z,19.12
2023-06-07T11:07:26.636Z,19.13
2023-06-07T11:10:19.775Z,19.13
2023-06-07T11:12:46.474Z,19.15
2023-06-07T11:15:19.558Z,19.17
2023-06-07T11:18:04.220Z,19.18
2023-06-07T11:20:37.283Z,19.17
2023-06-07T11:23:35.226Z,19.18
2023-06-07T11:26:08.270Z,19.18
2023-06-07T11:28:38.280Z,19.19
2023-06-07T11:31:09.805Z,19.20
2023-06-07T11:33:37.370Z,19.19
2023-06-07T11:36:10.312Z,19.20
2023-06-07T11:38:38.527Z,19.19
2023-06-07T11:41:06.834Z,19.24
2023-06-07T11:43:33.833Z,19.26
2023-06-07T11:46:01.090Z,19.29
2023-06-07T11:48:31.712Z,19.32
2023-06-07T11:51:00.554Z,19.30
2023-06-07T11:53:31.903Z,19.32
2023-06-07T11:56:03.201Z,19.32
2023-06-07T11:58:31.239Z,19.30
2023-06-07T12:00:58.644Z,19.32
2023-06-07T12:03:25.934Z,19.32
2023-06-07T12:05:54.485Z,19.33
2023-06-07T12:08:22.063Z,19.32
2023-06-07T12:10:56.097Z,19.32
2023-06-07T12:13:24.080Z,19.31
2023-06-07T12:15:55.005Z,19.31
2023-06-07T12:18:41.999Z,19.33
2023-06-07T12:21:13.380Z,19.33
2023-06-07T12:23:51.979Z,19.33
2023-06-07T12:26:31.732Z,19.34
2023-06-07T12:29:02.271Z,19.34
2023-06-07T12:31:29.451Z,19.34
2023-06-07T12:33:59.396Z,19.36
2023-06-07T12:36:31.231Z,19.37
2023-06-07T12:39:03.386Z,19.36
2023-06-07T12:41:30.256Z,19.38
2023-06-07T12:44:02.447Z,19.35
2023-06-07T12:46:30.447Z,19.42
2023-06-07T12:48:57.330Z,19.43
2023-06-07T12:51:25.122Z,19.45
2023-06-07T12:53:52.346Z,19.45
2023-06-07T12:56:18.887Z,19.48
2023-06-07T12:58:45.481Z,19.49
2023-06-07T13:01:12.054Z,19.50
2023-06-07T13:03:39.184Z,19.50
2023-06-07T13:06:05.877Z,19.50
2023-06-07T13:08:32.426Z,19.49
2023-06-07T13:10:59.089Z,19.49
2023-06-07T13:13:25.663Z,19.49
2023-06-07T13:15:52.216Z,19.50
2023-06-07T13:18:19.082Z,19.51
2023-06-07T13:20:45.782Z,19.51
2023-06-07T13:23:12.312Z,19.53
2023-06-07T13:25:38.921Z,19.51
2023-06-07T13:28:05.626Z,19.52
2023-06-07T13:30:32.692Z,19.54
2023-06-07T13:32:59.452Z,19.53
2023-06-07T13:35:26.082Z,19.54
2023-06-07T13:37:56.347Z,19.56
2023-06-07T13:40:22.869Z,19.57
2023-06-07T13:42:49.665Z,19.58
2023-06-07T13:45:16.221Z,19.55
2023-06-07T13:47:42.922Z,19.52
2023-06-07T13:50:10.203Z,19.52
2023-06-07T13:52:37.493Z,19.52
2023-06-07T13:55:04.389Z,19.52
2023-06-07T13:57:30.946Z,19.53
2023-06-07T13:59:58.273Z,19.54
2023-06-07T14:02:25.058Z,19.56
2023-06-07T14:04:52.051Z,19.59
2023-06-07T14:07:18.903Z,19.57
2023-06-07T14:09:46.715Z,19.59
2023-06-07T14:12:13.335Z,19.59
2023-06-07T14:14:40.453Z,19.58
2023-06-07T14:17:07.321Z,19.57
2023-06-07T14:19:33.873Z,19.59
2023-06-07T14:22:00.536Z,19.64
2023-06-07T14:24:27.229Z,19.66
2023-06-07T14:26:54.107Z,19.67
2023-06-07T14:29:20.798Z,19.69
2023-06-07T14:31:47.450Z,19.69
2023-06-07T14:34:15.058Z,19.70
2023-06-07T14:36:42.910Z,19.73
2023-06-07T14:39:09.691Z,19.75
2023-06-07T14:41:36.295Z,19.75
2023-06-07T14:44:02.852Z,19.70
2023-06-07T14:46:29.428Z,19.72
2023-06-07T14:48:55.992Z,19.72
2023-06-07T14:51:24.514Z,19.72
2023-06-07T14:53:51.386Z,19.73
2023-06-07T14:56:17.912Z,19.73
2023-06-07T14:58:45.011Z,19.73
2023-06-07T15:01:13.326Z,19.74
2023-06-07T15:03:40.564Z,19.74
2023-06-07T15:06:07.157Z,19.74
2023-06-07T15:08:33.727Z,19.75
2023-06-07T15:11:00.271Z,19.75
2023-06-07T15:13:26.800Z,19.75
2023-06-07T15:15:53.324Z,19.76
2023-06-07T15:18:21.790Z,19.78
2023-06-07T15:20:48.437Z,19.78
2023-06-07T15:23:14.988Z,19.79
2023-06-07T15:25:41.509Z,19.77
2023-06-07T15:28:08.942Z,19.80
2023-06-07T15:30:35.709Z,19.81
2023-06-07T15:33:02.306Z,19.79
2023-06-07T15:35:28.857Z,19.79
2023-06-07T15:37:55.512Z,19.78
2023-06-07T15:40:22.058Z,19.78
2023-06-07T15:42:48.989Z,19.78
2023-06-07T15:45:15.793Z,19.79
2023-06-07T15:47:57.974Z,19.79
2023-06-07T15:50:24.564Z,19.78
2023-06-07T15:52:51.104Z,19.79
2023-06-07T15:55:17.736Z,19.82
2023-06-07T15:57:44.279Z,19.81
2023-06-07T16:00:19.491Z,19.82
2023-06-07T16:02:54.636Z,19.82
2023-06-07T16:05:21.441Z,19.84
2023-06-07T16:07:48.038Z,19.83
2023-06-07T16:10:14.608Z,19.86
2023-06-07T16:12:41.255Z,19.87
2023-06-07T16:15:08.339Z,19.86
2023-06-07T16:17:34.989Z,19.86
2023-06-07T16:20:01.564Z,19.86
2023-06-07T16:22:28.143Z,19.85
2023-06-07T16:24:54.652Z,19.85
2023-06-07T16:27:21.221Z,19.85
2023-06-07T16:29:47.861Z,19.84
2023-06-07T16:32:14.500Z,19.84
2023-06-07T16:34:41.129Z,19.81
2023-06-07T16:37:07.672Z,19.82
2023-06-07T16:39:34.172Z,19.80
2023-06-07T16:42:00.758Z,19.80
2023-06-07T16:44:27.334Z,19.80
2023-06-07T16:46:55.535Z,19.81
2023-06-07T16:49:24.295Z,19.80
2023-06-07T16:51:51.123Z,19.80
2023-06-07T16:54:17.740Z,19.80
2023-06-07T16:56:44.291Z,19.80
2023-06-07T16:59:10.879Z,19.80
2023-06-07T17:01:37.477Z,19.80
2023-06-07T17:04:04.584Z,19.78
2023-06-07T17:06:31.118Z,19.78
2023-06-07T17:08:57.639Z,19.79
2023-06-07T17:11:26.271Z,19.77
2023-06-07T17:13:52.881Z,19.78
2023-06-07T17:16:19.457Z,19.78
2023-06-07T17:18:46.079Z,19.76
2023-06-07T17:21:12.912Z,19.76
2023-06-07T17:23:39.692Z,19.76
2023-06-07T17:26:07.763Z,19.76
2023-06-07T17:28:34.647Z,19.77
2023-06-07T17:31:01.467Z,19.78
2023-06-07T17:33:28.275Z,19.77
2023-06-07T17:35:54.818Z,19.77
2023-06-07T17:38:21.604Z,19.79
2023-06-07T17:40:48.308Z,19.79
2023-06-07T17:43:14.907Z,19.80
2023-06-07T17:45:41.624Z,19.80
2023-06-07T17:48:08.249Z,19.80
2023-06-07T17:50:46.048Z,19.80
2023-06-07T17:53:14.622Z,19.80
2023-06-07T17:55:42.305Z,19.80
2023-06-07T17:58:08.821Z,19.79
2023-06-07T18:00:35.377Z,19.78
2023-06-07T18:03:03.633Z,19.77
2023-06-07T18:05:30.424Z,19.77
2023-06-07T18:07:56.957Z,19.75
2023-06-07T18:10:23.465Z,19.74
2023-06-07T18:12:50.556Z,19.74
2023-06-07T18:15:17.092Z,19.73
2023-06-07T18:17:44.003Z,19.73
2023-06-07T18:20:11.023Z,19.72
2023-06-07T18:22:37.715Z,19.71
2023-06-07T18:25:04.675Z,19.71
2023-06-07T18:27:31.222Z,19.71
2023-06-07T18:29:57.747Z,19.70
2023-06-07T18:32:24.496Z,19.69
2023-06-07T18:34:51.897Z,19.68
2023-06-07T18:37:18.473Z,19.68
2023-06-07T18:39:45.056Z,19.67
2023-06-07T18:42:13.637Z,19.65
2023-06-07T18:44:42.296Z,19.65
2023-06-07T18:47:08.880Z,19.66
2023-06-07T18:49:35.496Z,19.67
2023-06-07T18:52:03.312Z,19.68
2023-06-07T18:54:29.867Z,19.68
2023-06-07T18:56:58.248Z,19.69
2023-06-07T18:59:24.850Z,19.67
2023-06-07T19:01:55.385Z,19.66
2023-06-07T19:04:23.028Z,19.65
2023-06-07T19:06:51.915Z,19.62
2023-06-07T19:09:18.893Z,19.64
2023-06-07T19:11:46.160Z,19.63
2023-06-07T19:14:12.748Z,19.63
2023-06-07T19:16:39.534Z,19.64
2023-06-07T19:19:06.699Z,19.62
2023-06-07T19:21:33.576Z,19.63
2023-06-07T19:24:03.178Z,19.64
2023-06-07T19:26:30.853Z,19.64
2023-06-07T19:29:00.358Z,19.65
2023-06-07T19:31:27.148Z,19.64
2023-06-07T19:33:54.478Z,19.66
2023-06-07T19:36:21.311Z,19.67
2023-06-07T19:38:47.873Z,19.64
2023-06-07T19:41:14.488Z,19.65
2023-06-07T19:43:41.566Z,19.64
2023-06-07T19:46:08.339Z,19.62
2023-06-07T19:48:34.972Z,19.62
2023-06-07T19:51:01.550Z,19.60
2023-06-07T19:53:28.266Z,19.59
2023-06-07T19:55:54.794Z,19.59
2023-06-07T19:58:21.315Z,19.59
2023-06-07T20:00:47.858Z,19.58
2023-06-07T20:03:14.485Z,19.58
2023-06-07T20:05:41.076Z,19.56
2023-06-07T20:08:08.830Z,19.55
2023-06-07T20:10:35.880Z,19.56
2023-06-07T20:13:02.622Z,19.54
2023-06-07T20:15:29.168Z,19.55
2023-06-07T20:17:55.997Z,19.54
2023-06-07T20:20:22.684Z,19.54
2023-06-07T20:22:49.197Z,19.53
2023-06-07T20:25:16.775Z,19.54
2023-06-07T20:27:43.299Z,19.53
2023-06-07T20:30:10.395Z,19.52
2023-06-07T20:32:37.080Z,19.53
2023-06-07T20:35:03.807Z,19.51
2023-06-07T20:37:30.352Z,19.52
2023-06-07T20:39:56.899Z,19.50
2023-06-07T20:42:23.421Z,19.51
2023-06-07T20:44:53.909Z,19.51
2023-06-07T20:47:21.116Z,19.50
2023-06-07T20:49:47.701Z,19.51
2023-06-07T20:52:14.256Z,19.50
2023-06-07T20:54:40.866Z,19.51
2023-06-07T20:57:07.900Z,19.52
2023-06-07T20:59:35.606Z,19.53
2023-06-07T21:02:02.377Z,19.54
2023-06-07T21:04:29.054Z,19.54
2023-06-07T21:06:55.631Z,19.55
2023-06-07T21:09:22.271Z,19.54
2023-06-07T21:11:48.876Z,19.54
2023-06-07T21:14:17.206Z,19.56
2023-06-07T21:16:47.440Z,19.53
2023-06-07T21:19:14.361Z,19.56
2023-06-07T21:21:40.900Z,19.53
2023-06-07T21:24:07.659Z,19.54
2023-06-07T21:26:34.901Z,19.53
2023-06-07T21:29:01.586Z,19.51
2023-06-07T21:31:28.194Z,19.51
2023-06-07T21:34:02.087Z,19.50
2023-06-07T21:36:29.818Z,19.51
2023-06-07T21:38:59.763Z,19.50
2023-06-07T21:41:27.109Z,19.49
2023-06-07T21:43:53.782Z,19.48
2023-06-07T21:46:20.485Z,19.48
2023-06-07T21:48:47.128Z,19.47
2023-06-07T21:51:14.637Z,19.47
2023-06-07T21:53:41.319Z,19.45
2023-06-07T21:56:08.020Z,19.46
2023-06-07T21:58:34.621Z,19.45
2023-06-07T22:01:01.266Z,19.44
2023-06-07T22:03:27.905Z,19.44
2023-06-07T22:05:54.547Z,19.45
2023-06-07T22:08:21.133Z,19.45
2023-06-07T22:10:47.659Z,19.44
2023-06-07T22:13:17.659Z,19.45
2023-06-07T22:15:45.529Z,19.42
2023-06-07T22:18:12.526Z,19.42
2023-06-07T22:20:41.337Z,19.41
2023-06-07T22:23:08.843Z,19.41
2023-06-07T22:25:40.870Z,19.41
2023-06-07T22:28:13.595Z,19.42
2023-06-07T22:30:41.222Z,19.42
2023-06-07T22:33:10.712Z,19.43
2023-06-07T22:35:38.473Z,19.44
2023-06-07T22:38:07.183Z,19.44
2023-06-07T22:40:35.187Z,19.45
2023-06-07T22:43:02.321Z,19.46
2023-06-07T22:45:31.448Z,19.48
2023-06-07T22:48:11.018Z,19.48
2023-06-07T22:50:39.288Z,19.48
2023-06-07T22:53:07.552Z,19.48
2023-06-07T22:55:35.515Z,19.49
2023-06-07T22:58:03.977Z,19.48
2023-06-07T23:00:30.984Z,19.47
2023-06-07T23:03:00.379Z,19.47
2023-06-07T23:05:29.955Z,19.45
2023-06-07T23:07:58.136Z,19.47
2023-06-07T23:10:36.138Z,19.44
2023-06-07T23:13:16.325Z,19.46
2023-06-07T23:15:43.914Z,19.43
2023-06-07T23:18:12.308Z,19.43
2023-06-07T23:20:41.868Z,19.42
2023-06-07T23:23:10.599Z,19.41
2023-06-07T23:25:37.331Z,19.43
2023-06-07T23:28:04.097Z,19.41
2023-06-07T23:30:31.400Z,19.40
2023-06-07T23:32:58.004Z,19.40
2023-06-07T23:35:24.932Z,19.39
2023-06-07T23:37:51.650Z,19.40
2023-06-07T23:40:18.629Z,19.37
2023-06-07T23:42:46.069Z,19.35
2023-06-07T23:45:13.115Z,19.34
2023-06-07T23:47:40.475Z,19.34
2023-06-07T23:50:08.239Z,19.33
2023-06-07T23:52:36.017Z,19.31
2023-06-07T23:55:02.943Z,19.28
2023-06-07T23:57:29.921Z,19.28
2023-06-07T23:59:56.849Z,19.25
